sensor_id;sensor_type;location;lat;lon;timestamp;temperature;humidity
12811;DHT22;6470;47.654;7.896;2023-04-06T00:01:38;2.80;99.90
12811;DHT22;6470;47.654;7.896;2023-04-06T00:04:05;2.70;99.90
12811;DHT22;6470;47.654;7.896;2023-04-06T00:06:31;2.10;99.90
12811;DHT22;6470;47.654;7.896;2023-04-06T00:08:58;2.50;99.90
12811;DHT22;6470;47.654;7.896;2023-04-06T00:11:25;2.40;99.90
12811;DHT22;6470;47.654;7.896;2023-04-06T00:13:51;2.20;99.90
12811;DHT22;6470;47.654;7.896;2023-04-06T00:16:17;2.00;99.90
12811;DHT22;6470;47.654;7.896;2023-04-06T00:18:43;2.10;99.90
12811;DHT22;6470;47.654;7.896;2023-04-06T00:21:11;2.90;99.90
12811;DHT22;6470;47.654;7.896;2023-04-06T00:23:38;2.00;99.90
12811;DHT22;6470;47.654;7.896;2023-04-06T00:26:04;2.50;99.90
12811;DHT22;6470;47.654;7.896;2023-04-06T00:28:30;2.20;99.90
12811;DHT22;6470;47.654;7.896;2023-04-06T00:33:22;2.70;99.90
12811;DHT22;6470;47.654;7.896;2023-04-06T00:35:49;2.10;99.90
12811;DHT22;6470;47.654;7.896;2023-04-06T00:38:15;1.70;99.90
12811;DHT22;6470;47.654;7.896;2023-04-06T00:43:07;2.30;99.90
12811;DHT22;6470;47.654;7.896;2023-04-06T00:45:35;1.80;99.90
12811;DHT22;6470;47.654;7.896;2023-04-06T00:48:01;2.50;99.90
12811;DHT22;6470;47.654;7.896;2023-04-06T00:50:30;2.30;99.90
12811;DHT22;6470;47.654;7.896;2023-04-06T00:52:56;1.90;99.90
12811;DHT22;6470;47.654;7.896;2023-04-06T00:55:22;2.50;99.90
12811;DHT22;6470;47.654;7.896;2023-04-06T00:57:47;2.50;99.90
12811;DHT22;6470;47.654;7.896;2023-04-06T01:00:16;2.50;99.90
12811;DHT22;6470;47.654;7.896;2023-04-06T01:02:42;-1.70;99.90
12811;DHT22;6470;47.654;7.896;2023-04-06T01:05:08;2.10;99.90
12811;DHT22;6470;47.654;7.896;2023-04-06T01:07:33;2.70;99.90
12811;DHT22;6470;47.654;7.896;2023-04-06T01:09:59;2.70;99.90
12811;DHT22;6470;47.654;7.896;2023-04-06T01:12:25;1.70;99.90
12811;DHT22;6470;47.654;7.896;2023-04-06T01:14:51;2.40;99.90
12811;DHT22;6470;47.654;7.896;2023-04-06T01:17:17;2.00;99.90
12811;DHT22;6470;47.654;7.896;2023-04-06T01:22:15;2.30;99.90
12811;DHT22;6470;47.654;7.896;2023-04-06T01:24:41;2.50;99.90
12811;DHT22;6470;47.654;7.896;2023-04-06T01:27:07;2.50;99.90
12811;DHT22;6470;47.654;7.896;2023-04-06T01:29:32;1.90;99.90
12811;DHT22;6470;47.654;7.896;2023-04-06T01:31:58;2.40;99.90
12811;DHT22;6470;47.654;7.896;2023-04-06T01:34:24;2.20;99.90
12811;DHT22;6470;47.654;7.896;2023-04-06T01:39:16;0.60;99.90
12811;DHT22;6470;47.654;7.896;2023-04-06T01:44:08;2.20;99.90
12811;DHT22;6470;47.654;7.896;2023-04-06T01:46:34;2.40;99.90
12811;DHT22;6470;47.654;7.896;2023-04-06T01:49:00;2.10;99.90
12811;DHT22;6470;47.654;7.896;2023-04-06T01:51:25;-1.20;99.90
12811;DHT22;6470;47.654;7.896;2023-04-06T01:53:52;2.20;99.90
12811;DHT22;6470;47.654;7.896;2023-04-06T01:58:44;2.20;99.90
12811;DHT22;6470;47.654;7.896;2023-04-06T02:01:09;1.80;99.90
12811;DHT22;6470;47.654;7.896;2023-04-06T02:03:35;2.30;99.90
12811;DHT22;6470;47.654;7.896;2023-04-06T02:06:01;2.30;99.90
12811;DHT22;6470;47.654;7.896;2023-04-06T02:08:27;2.50;99.90
12811;DHT22;6470;47.654;7.896;2023-04-06T02:10:54;-0.80;99.90
12811;DHT22;6470;47.654;7.896;2023-04-06T02:13:20;2.20;99.90
12811;DHT22;6470;47.654;7.896;2023-04-06T02:15:45;1.80;99.90
12811;DHT22;6470;47.654;7.896;2023-04-06T02:18:11;2.40;99.90
12811;DHT22;6470;47.654;7.896;2023-04-06T02:20:37;-0.90;99.90
12811;DHT22;6470;47.654;7.896;2023-04-06T02:23:02;2.50;99.90
12811;DHT22;6470;47.654;7.896;2023-04-06T02:25:28;2.20;99.90
12811;DHT22;6470;47.654;7.896;2023-04-06T02:27:54;2.50;99.90
12811;DHT22;6470;47.654;7.896;2023-04-06T02:30:20;-1.10;99.90
12811;DHT22;6470;47.654;7.896;2023-04-06T02:35:12;2.30;99.90
12811;DHT22;6470;47.654;7.896;2023-04-06T02:37:37;-1.20;99.90
12811;DHT22;6470;47.654;7.896;2023-04-06T02:40:04;-1.10;99.90
12811;DHT22;6470;47.654;7.896;2023-04-06T02:42:29;-1.40;99.90
12811;DHT22;6470;47.654;7.896;2023-04-06T02:47:21;-0.90;99.90
12811;DHT22;6470;47.654;7.896;2023-04-06T02:49:47;-1.00;99.90
12811;DHT22;6470;47.654;7.896;2023-04-06T02:52:13;-1.10;99.90
12811;DHT22;6470;47.654;7.896;2023-04-06T02:54:38;-1.20;99.90
12811;DHT22;6470;47.654;7.896;2023-04-06T02:57:05;-1.30;99.90
12811;DHT22;6470;47.654;7.896;2023-04-06T02:59:31;-2.00;99.90
12811;DHT22;6470;47.654;7.896;2023-04-06T03:04:22;-1.00;99.90
12811;DHT22;6470;47.654;7.896;2023-04-06T03:06:51;-0.80;99.90
12811;DHT22;6470;47.654;7.896;2023-04-06T03:09:17;-1.40;99.90
12811;DHT22;6470;47.654;7.896;2023-04-06T03:14:08;-1.00;99.90
12811;DHT22;6470;47.654;7.896;2023-04-06T03:16:34;-1.00;99.90
12811;DHT22;6470;47.654;7.896;2023-04-06T03:19:00;-1.40;99.90
12811;DHT22;6470;47.654;7.896;2023-04-06T03:21:26;-1.10;99.90
12811;DHT22;6470;47.654;7.896;2023-04-06T03:26:18;-1.30;99.90
12811;DHT22;6470;47.654;7.896;2023-04-06T03:28:44;-1.40;99.90
12811;DHT22;6470;47.654;7.896;2023-04-06T03:31:10;-1.10;99.90
12811;DHT22;6470;47.654;7.896;2023-04-06T03:33:35;-1.40;99.90
12811;DHT22;6470;47.654;7.896;2023-04-06T03:36:01;-1.20;99.90
12811;DHT22;6470;47.654;7.896;2023-04-06T03:40:53;-0.80;99.90
12811;DHT22;6470;47.654;7.896;2023-04-06T03:43:18;-1.20;99.90
12811;DHT22;6470;47.654;7.896;2023-04-06T03:45:44;-1.20;99.90
12811;DHT22;6470;47.654;7.896;2023-04-06T03:48:10;-1.70;99.90
12811;DHT22;6470;47.654;7.896;2023-04-06T03:50:36;-1.30;99.90
12811;DHT22;6470;47.654;7.896;2023-04-06T03:53:01;-2.20;99.90
12811;DHT22;6470;47.654;7.896;2023-04-06T03:55:28;-1.40;99.90
12811;DHT22;6470;47.654;7.896;2023-04-06T04:00:20;-2.30;99.90
12811;DHT22;6470;47.654;7.896;2023-04-06T04:02:46;-1.50;99.90
12811;DHT22;6470;47.654;7.896;2023-04-06T04:05:12;-2.70;99.90
12811;DHT22;6470;47.654;7.896;2023-04-06T04:07:38;-1.70;99.90
12811;DHT22;6470;47.654;7.896;2023-04-06T04:10:04;-1.50;99.90
12811;DHT22;6470;47.654;7.896;2023-04-06T04:12:30;-2.00;99.90
12811;DHT22;6470;47.654;7.896;2023-04-06T04:14:55;-2.00;99.90
12811;DHT22;6470;47.654;7.896;2023-04-06T04:17:22;-1.70;99.90
12811;DHT22;6470;47.654;7.896;2023-04-06T04:19:47;-1.60;99.90
12811;DHT22;6470;47.654;7.896;2023-04-06T04:22:13;-1.50;99.90
12811;DHT22;6470;47.654;7.896;2023-04-06T04:24:39;-1.90;99.90
12811;DHT22;6470;47.654;7.896;2023-04-06T04:27:05;-1.50;99.90
12811;DHT22;6470;47.654;7.896;2023-04-06T04:29:30;-2.10;99.90
12811;DHT22;6470;47.654;7.896;2023-04-06T04:31:56;-1.80;99.90
12811;DHT22;6470;47.654;7.896;2023-04-06T04:34:22;-2.20;99.90
12811;DHT22;6470;47.654;7.896;2023-04-06T04:36:51;-1.90;99.90
12811;DHT22;6470;47.654;7.896;2023-04-06T04:39:17;-1.60;99.90
12811;DHT22;6470;47.654;7.896;2023-04-06T04:41:42;-1.80;99.90
12811;DHT22;6470;47.654;7.896;2023-04-06T04:44:08;-1.80;99.90
12811;DHT22;6470;47.654;7.896;2023-04-06T04:46:34;-1.60;99.90
12811;DHT22;6470;47.654;7.896;2023-04-06T04:51:26;-2.00;99.90
12811;DHT22;6470;47.654;7.896;2023-04-06T04:53:52;-2.40;99.90
12811;DHT22;6470;47.654;7.896;2023-04-06T04:56:17;-2.00;99.90
12811;DHT22;6470;47.654;7.896;2023-04-06T04:58:43;-1.90;99.90
12811;DHT22;6470;47.654;7.896;2023-04-06T05:01:09;-2.40;99.90
12811;DHT22;6470;47.654;7.896;2023-04-06T05:03:36;-2.10;99.90
12811;DHT22;6470;47.654;7.896;2023-04-06T05:06:04;-2.10;99.90
12811;DHT22;6470;47.654;7.896;2023-04-06T05:08:30;-1.40;99.90
12811;DHT22;6470;47.654;7.896;2023-04-06T05:10:56;-1.80;99.90
12811;DHT22;6470;47.654;7.896;2023-04-06T05:13:22;-1.70;99.90
12811;DHT22;6470;47.654;7.896;2023-04-06T05:15:48;-2.00;99.90
12811;DHT22;6470;47.654;7.896;2023-04-06T05:18:14;-1.70;99.90
12811;DHT22;6470;47.654;7.896;2023-04-06T05:20:40;-2.10;99.90
12811;DHT22;6470;47.654;7.896;2023-04-06T05:23:06;-1.80;99.90
12811;DHT22;6470;47.654;7.896;2023-04-06T05:25:32;-1.60;99.90
12811;DHT22;6470;47.654;7.896;2023-04-06T05:27:58;-1.90;99.90
12811;DHT22;6470;47.654;7.896;2023-04-06T05:30:24;-1.40;99.90
12811;DHT22;6470;47.654;7.896;2023-04-06T05:32:50;-1.20;99.90
12811;DHT22;6470;47.654;7.896;2023-04-06T05:35:16;-1.40;99.90
12811;DHT22;6470;47.654;7.896;2023-04-06T05:37:42;-1.30;99.90
12811;DHT22;6470;47.654;7.896;2023-04-06T05:40:08;-1.30;99.90
12811;DHT22;6470;47.654;7.896;2023-04-06T05:42:38;-2.10;99.90
12811;DHT22;6470;47.654;7.896;2023-04-06T05:45:05;-1.60;99.90
12811;DHT22;6470;47.654;7.896;2023-04-06T05:47:33;-1.60;99.90
12811;DHT22;6470;47.654;7.896;2023-04-06T05:49:59;-1.60;99.90
12811;DHT22;6470;47.654;7.896;2023-04-06T05:52:24;-1.40;99.90
12811;DHT22;6470;47.654;7.896;2023-04-06T05:54:51;-1.10;99.90
12811;DHT22;6470;47.654;7.896;2023-04-06T05:57:17;-1.20;99.90
12811;DHT22;6470;47.654;7.896;2023-04-06T05:59:43;-0.70;99.90
12811;DHT22;6470;47.654;7.896;2023-04-06T06:02:09;-0.80;99.90
12811;DHT22;6470;47.654;7.896;2023-04-06T06:04:35;-0.80;99.90
12811;DHT22;6470;47.654;7.896;2023-04-06T06:07:00;0.50;99.90
12811;DHT22;6470;47.654;7.896;2023-04-06T06:09:26;2.50;99.90
12811;DHT22;6470;47.654;7.896;2023-04-06T06:11:52;2.10;99.90
12811;DHT22;6470;47.654;7.896;2023-04-06T06:14:18;2.40;99.90
12811;DHT22;6470;47.654;7.896;2023-04-06T06:16:43;2.70;99.90
12811;DHT22;6470;47.654;7.896;2023-04-06T06:19:09;2.60;99.90
12811;DHT22;6470;47.654;7.896;2023-04-06T06:24:02;3.10;99.90
12811;DHT22;6470;47.654;7.896;2023-04-06T06:26:28;2.10;99.90
12811;DHT22;6470;47.654;7.896;2023-04-06T06:28:53;2.10;99.90
12811;DHT22;6470;47.654;7.896;2023-04-06T06:33:48;2.30;99.90
12811;DHT22;6470;47.654;7.896;2023-04-06T06:36:17;-0.60;99.90
12811;DHT22;6470;47.654;7.896;2023-04-06T06:38:44;2.50;99.90
12811;DHT22;6470;47.654;7.896;2023-04-06T06:41:10;2.20;99.90
12811;DHT22;6470;47.654;7.896;2023-04-06T06:43:36;2.30;99.90
12811;DHT22;6470;47.654;7.896;2023-04-06T06:46:02;2.70;99.90
12811;DHT22;6470;47.654;7.896;2023-04-06T06:48:28;2.60;99.90
12811;DHT22;6470;47.654;7.896;2023-04-06T06:50:54;2.50;99.90
12811;DHT22;6470;47.654;7.896;2023-04-06T06:53:20;3.40;99.90
12811;DHT22;6470;47.654;7.896;2023-04-06T06:55:46;3.30;99.90
12811;DHT22;6470;47.654;7.896;2023-04-06T06:58:14;4.50;99.90
12811;DHT22;6470;47.654;7.896;2023-04-06T07:00:40;4.50;99.90
12811;DHT22;6470;47.654;7.896;2023-04-06T07:03:06;4.80;99.90
12811;DHT22;6470;47.654;7.896;2023-04-06T07:05:32;4.90;99.90
12811;DHT22;6470;47.654;7.896;2023-04-06T07:07:58;4.60;99.90
12811;DHT22;6470;47.654;7.896;2023-04-06T07:12:50;4.70;99.90
12811;DHT22;6470;47.654;7.896;2023-04-06T07:15:16;4.80;99.90
12811;DHT22;6470;47.654;7.896;2023-04-06T07:17:42;4.80;99.90
12811;DHT22;6470;47.654;7.896;2023-04-06T07:20:11;5.10;99.90
12811;DHT22;6470;47.654;7.896;2023-04-06T07:22:38;5.30;99.90
12811;DHT22;6470;47.654;7.896;2023-04-06T07:25:04;5.30;99.90
12811;DHT22;6470;47.654;7.896;2023-04-06T07:27:30;6.40;99.90
12811;DHT22;6470;47.654;7.896;2023-04-06T07:29:55;5.70;99.90
12811;DHT22;6470;47.654;7.896;2023-04-06T07:32:21;5.50;99.90
12811;DHT22;6470;47.654;7.896;2023-04-06T07:34:47;6.10;99.90
12811;DHT22;6470;47.654;7.896;2023-04-06T07:37:13;5.80;99.90
12811;DHT22;6470;47.654;7.896;2023-04-06T07:39:38;6.10;99.90
12811;DHT22;6470;47.654;7.896;2023-04-06T07:42:04;6.20;99.90
12811;DHT22;6470;47.654;7.896;2023-04-06T07:44:30;5.70;99.90
12811;DHT22;6470;47.654;7.896;2023-04-06T07:49:22;6.60;99.90
12811;DHT22;6470;47.654;7.896;2023-04-06T07:54:14;6.00;99.90
12811;DHT22;6470;47.654;7.896;2023-04-06T07:56:40;7.20;99.90
12811;DHT22;6470;47.654;7.896;2023-04-06T07:59:06;7.10;99.90
12811;DHT22;6470;47.654;7.896;2023-04-06T08:01:32;7.30;99.90
12811;DHT22;6470;47.654;7.896;2023-04-06T08:03:58;7.60;99.90
12811;DHT22;6470;47.654;7.896;2023-04-06T08:06:24;7.60;99.90
12811;DHT22;6470;47.654;7.896;2023-04-06T08:08:50;8.60;99.90
12811;DHT22;6470;47.654;7.896;2023-04-06T08:16:08;8.10;99.90
12811;DHT22;6470;47.654;7.896;2023-04-06T08:18:34;8.30;99.90
12811;DHT22;6470;47.654;7.896;2023-04-06T08:20:59;8.30;99.90
12811;DHT22;6470;47.654;7.896;2023-04-06T08:23:25;8.40;99.90
12811;DHT22;6470;47.654;7.896;2023-04-06T08:25:51;8.30;99.90
12811;DHT22;6470;47.654;7.896;2023-04-06T08:28:20;9.30;99.90
12811;DHT22;6470;47.654;7.896;2023-04-06T08:30:46;9.80;99.90
12811;DHT22;6470;47.654;7.896;2023-04-06T08:33:12;9.00;99.90
12811;DHT22;6470;47.654;7.896;2023-04-06T08:35:37;9.10;99.90
12811;DHT22;6470;47.654;7.896;2023-04-06T08:38:03;9.70;99.90
12811;DHT22;6470;47.654;7.896;2023-04-06T08:40:29;8.90;99.90
12811;DHT22;6470;47.654;7.896;2023-04-06T08:42:56;8.80;99.90
12811;DHT22;6470;47.654;7.896;2023-04-06T08:45:25;10.60;99.90
12811;DHT22;6470;47.654;7.896;2023-04-06T08:47:51;10.10;99.90
12811;DHT22;6470;47.654;7.896;2023-04-06T08:50:18;10.30;99.90
12811;DHT22;6470;47.654;7.896;2023-04-06T08:52:47;10.40;99.90
12811;DHT22;6470;47.654;7.896;2023-04-06T08:55:13;10.70;99.90
12811;DHT22;6470;47.654;7.896;2023-04-06T08:57:39;12.30;99.20
12811;DHT22;6470;47.654;7.896;2023-04-06T09:00:09;11.00;98.60
12811;DHT22;6470;47.654;7.896;2023-04-06T09:02:39;11.80;99.90
12811;DHT22;6470;47.654;7.896;2023-04-06T09:05:07;11.00;99.90
12811;DHT22;6470;47.654;7.896;2023-04-06T09:07:33;11.00;99.90
12811;DHT22;6470;47.654;7.896;2023-04-06T09:09:58;11.10;99.90
12811;DHT22;6470;47.654;7.896;2023-04-06T09:12:25;12.40;99.90
12811;DHT22;6470;47.654;7.896;2023-04-06T09:14:52;10.90;99.80
12811;DHT22;6470;47.654;7.896;2023-04-06T09:17:29;11.10;99.90
12811;DHT22;6470;47.654;7.896;2023-04-06T09:19:56;11.30;99.70
12811;DHT22;6470;47.654;7.896;2023-04-06T09:22:22;11.50;99.80
12811;DHT22;6470;47.654;7.896;2023-04-06T09:24:52;12.20;99.20
12811;DHT22;6470;47.654;7.896;2023-04-06T09:27:29;11.90;99.10
12811;DHT22;6470;47.654;7.896;2023-04-06T09:30:04;14.70;97.90
12811;DHT22;6470;47.654;7.896;2023-04-06T09:32:30;14.40;98.10
12811;DHT22;6470;47.654;7.896;2023-04-06T09:35:06;15.00;99.10
12811;DHT22;6470;47.654;7.896;2023-04-06T09:37:32;14.50;96.90
12811;DHT22;6470;47.654;7.896;2023-04-06T09:40:05;12.50;96.60
12811;DHT22;6470;47.654;7.896;2023-04-06T09:42:33;12.50;96.70
12811;DHT22;6470;47.654;7.896;2023-04-06T09:44:59;14.40;96.10
12811;DHT22;6470;47.654;7.896;2023-04-06T09:49:56;15.60;94.90
12811;DHT22;6470;47.654;7.896;2023-04-06T09:52:30;12.60;93.20
12811;DHT22;6470;47.654;7.896;2023-04-06T09:55:01;14.30;94.70
12811;DHT22;6470;47.654;7.896;2023-04-06T09:58:04;12.80;94.20
12811;DHT22;6470;47.654;7.896;2023-04-06T10:00:32;15.10;93.10
12811;DHT22;6470;47.654;7.896;2023-04-06T10:06:00;15.20;93.90
12811;DHT22;6470;47.654;7.896;2023-04-06T10:08:30;14.80;93.20
12811;DHT22;6470;47.654;7.896;2023-04-06T10:10:58;14.90;92.80
12811;DHT22;6470;47.654;7.896;2023-04-06T10:13:24;14.50;92.50
12811;DHT22;6470;47.654;7.896;2023-04-06T10:15:51;15.10;93.60
12811;DHT22;6470;47.654;7.896;2023-04-06T10:18:17;15.10;93.00
12811;DHT22;6470;47.654;7.896;2023-04-06T10:21:06;14.70;92.80
12811;DHT22;6470;47.654;7.896;2023-04-06T10:23:58;10.30;91.40
12811;DHT22;6470;47.654;7.896;2023-04-06T10:26:21;15.00;91.90
12811;DHT22;6470;47.654;7.896;2023-04-06T10:28:48;14.80;92.30
12811;DHT22;6470;47.654;7.896;2023-04-06T10:31:15;12.60;92.00
12811;DHT22;6470;47.654;7.896;2023-04-06T10:33:41;14.50;92.60
12811;DHT22;6470;47.654;7.896;2023-04-06T10:38:38;13.40;91.60
12811;DHT22;6470;47.654;7.896;2023-04-06T10:41:06;15.50;91.60
12811;DHT22;6470;47.654;7.896;2023-04-06T10:43:36;13.10;91.20
12811;DHT22;6470;47.654;7.896;2023-04-06T10:46:03;14.60;91.70
12811;DHT22;6470;47.654;7.896;2023-04-06T10:48:39;14.60;90.70
12811;DHT22;6470;47.654;7.896;2023-04-06T10:51:13;15.50;87.30
12811;DHT22;6470;47.654;7.896;2023-04-06T10:53:47;15.10;88.10
12811;DHT22;6470;47.654;7.896;2023-04-06T10:56:18;15.20;87.20
12811;DHT22;6470;47.654;7.896;2023-04-06T10:58:47;14.20;87.10
12811;DHT22;6470;47.654;7.896;2023-04-06T11:01:17;15.70;83.40
12811;DHT22;6470;47.654;7.896;2023-04-06T11:03:48;15.20;85.20
12811;DHT22;6470;47.654;7.896;2023-04-06T11:06:26;14.10;85.10
12811;DHT22;6470;47.654;7.896;2023-04-06T11:08:54;14.10;84.80
12811;DHT22;6470;47.654;7.896;2023-04-06T11:11:22;15.50;86.90
12811;DHT22;6470;47.654;7.896;2023-04-06T11:13:49;15.40;82.80
12811;DHT22;6470;47.654;7.896;2023-04-06T11:16:30;13.80;82.20
12811;DHT22;6470;47.654;7.896;2023-04-06T11:24:18;13.90;86.50
12811;DHT22;6470;47.654;7.896;2023-04-06T11:26:45;15.40;83.00
12811;DHT22;6470;47.654;7.896;2023-04-06T11:29:25;14.90;77.60
12811;DHT22;6470;47.654;7.896;2023-04-06T11:32:05;15.50;77.90
12811;DHT22;6470;47.654;7.896;2023-04-06T11:34:39;14.90;72.50
12811;DHT22;6470;47.654;7.896;2023-04-06T11:37:11;15.30;72.30
12811;DHT22;6470;47.654;7.896;2023-04-06T11:39:44;14.70;77.30
12811;DHT22;6470;47.654;7.896;2023-04-06T11:42:12;15.20;79.30
12811;DHT22;6470;47.654;7.896;2023-04-06T11:44:44;13.90;78.70
12811;DHT22;6470;47.654;7.896;2023-04-06T11:47:15;14.80;78.40
12811;DHT22;6470;47.654;7.896;2023-04-06T11:49:43;15.30;74.40
12811;DHT22;6470;47.654;7.896;2023-04-06T11:52:18;13.70;73.40
12811;DHT22;6470;47.654;7.896;2023-04-06T11:54:45;15.10;76.70
12811;DHT22;6470;47.654;7.896;2023-04-06T11:57:11;14.80;73.00
12811;DHT22;6470;47.654;7.896;2023-04-06T11:59:36;14.90;76.70
12811;DHT22;6470;47.654;7.896;2023-04-06T12:02:03;14.90;79.30
12811;DHT22;6470;47.654;7.896;2023-04-06T12:04:29;13.80;78.50
12811;DHT22;6470;47.654;7.896;2023-04-06T12:06:55;14.00;80.70
12811;DHT22;6470;47.654;7.896;2023-04-06T12:09:21;15.80;81.90
12811;DHT22;6470;47.654;7.896;2023-04-06T12:11:47;15.80;82.50
12811;DHT22;6470;47.654;7.896;2023-04-06T12:14:13;15.30;80.10
12811;DHT22;6470;47.654;7.896;2023-04-06T12:16:39;15.70;81.60
12811;DHT22;6470;47.654;7.896;2023-04-06T12:19:06;14.00;80.80
12811;DHT22;6470;47.654;7.896;2023-04-06T12:21:32;15.40;81.30
12811;DHT22;6470;47.654;7.896;2023-04-06T12:23:58;15.50;82.30
12811;DHT22;6470;47.654;7.896;2023-04-06T12:26:25;15.70;82.90
12811;DHT22;6470;47.654;7.896;2023-04-06T12:28:51;15.30;80.00
12811;DHT22;6470;47.654;7.896;2023-04-06T12:31:17;15.30;81.10
12811;DHT22;6470;47.654;7.896;2023-04-06T12:33:47;15.70;82.70
12811;DHT22;6470;47.654;7.896;2023-04-06T12:36:18;14.40;82.00
12811;DHT22;6470;47.654;7.896;2023-04-06T12:38:48;14.40;82.60
12811;DHT22;6470;47.654;7.896;2023-04-06T12:41:15;15.50;81.40
12811;DHT22;6470;47.654;7.896;2023-04-06T12:43:41;15.70;76.80
12811;DHT22;6470;47.654;7.896;2023-04-06T12:46:08;15.20;76.50
12811;DHT22;6470;47.654;7.896;2023-04-06T12:48:34;15.20;77.00
12811;DHT22;6470;47.654;7.896;2023-04-06T12:51:02;15.60;77.10
12811;DHT22;6470;47.654;7.896;2023-04-06T12:53:28;15.80;76.60
12811;DHT22;6470;47.654;7.896;2023-04-06T12:55:55;15.30;76.00
12811;DHT22;6470;47.654;7.896;2023-04-06T12:58:22;15.70;77.80
12811;DHT22;6470;47.654;7.896;2023-04-06T13:00:49;15.20;77.30
12811;DHT22;6470;47.654;7.896;2023-04-06T13:05:48;15.60;76.50
12811;DHT22;6470;47.654;7.896;2023-04-06T13:08:14;15.60;73.00
12811;DHT22;6470;47.654;7.896;2023-04-06T13:10:47;14.60;71.80
12811;DHT22;6470;47.654;7.896;2023-04-06T13:13:16;15.60;73.50
12811;DHT22;6470;47.654;7.896;2023-04-06T13:15:42;12.20;70.20
12811;DHT22;6470;47.654;7.896;2023-04-06T13:18:08;15.00;72.10
12811;DHT22;6470;47.654;7.896;2023-04-06T13:20:35;15.70;72.00
12811;DHT22;6470;47.654;7.896;2023-04-06T13:23:01;15.90;73.50
12811;DHT22;6470;47.654;7.896;2023-04-06T13:25:27;16.00;72.00
12811;DHT22;6470;47.654;7.896;2023-04-06T13:27:53;11.80;69.10
12811;DHT22;6470;47.654;7.896;2023-04-06T13:30:20;14.70;71.10
12811;DHT22;6470;47.654;7.896;2023-04-06T13:35:12;16.20;71.40
12811;DHT22;6470;47.654;7.896;2023-04-06T13:37:38;15.80;68.30
12811;DHT22;6470;47.654;7.896;2023-04-06T13:40:04;14.90;64.60
12811;DHT22;6470;47.654;7.896;2023-04-06T13:42:31;15.50;65.60
12811;DHT22;6470;47.654;7.896;2023-04-06T13:44:57;15.40;68.00
12811;DHT22;6470;47.654;7.896;2023-04-06T13:47:23;15.40;67.20
12811;DHT22;6470;47.654;7.896;2023-04-06T13:49:52;14.90;66.50
12811;DHT22;6470;47.654;7.896;2023-04-06T13:52:18;15.30;68.20
12811;DHT22;6470;47.654;7.896;2023-04-06T13:57:11;14.90;69.40
12811;DHT22;6470;47.654;7.896;2023-04-06T13:59:38;14.90;72.40
12811;DHT22;6470;47.654;7.896;2023-04-06T14:02:07;14.90;69.40
12811;DHT22;6470;47.654;7.896;2023-04-06T14:04:33;15.10;70.00
12811;DHT22;6470;47.654;7.896;2023-04-06T14:07:00;11.40;69.30
12811;DHT22;6470;47.654;7.896;2023-04-06T14:09:27;15.20;72.40
12811;DHT22;6470;47.654;7.896;2023-04-06T14:11:53;13.90;72.00
12811;DHT22;6470;47.654;7.896;2023-04-06T14:14:19;11.60;69.30
12811;DHT22;6470;47.654;7.896;2023-04-06T14:16:46;14.70;70.70
12811;DHT22;6470;47.654;7.896;2023-04-06T14:19:14;15.60;73.30
12811;DHT22;6470;47.654;7.896;2023-04-06T14:21:41;15.30;71.10
12811;DHT22;6470;47.654;7.896;2023-04-06T14:24:08;15.30;71.30
12811;DHT22;6470;47.654;7.896;2023-04-06T14:26:35;15.90;74.10
12811;DHT22;6470;47.654;7.896;2023-04-06T14:29:01;15.20;73.80
12811;DHT22;6470;47.654;7.896;2023-04-06T14:31:28;14.70;72.50
12811;DHT22;6470;47.654;7.896;2023-04-06T14:33:53;15.40;75.20
12811;DHT22;6470;47.654;7.896;2023-04-06T14:36:20;13.90;74.60
12811;DHT22;6470;47.654;7.896;2023-04-06T14:38:45;14.90;74.00
12811;DHT22;6470;47.654;7.896;2023-04-06T14:41:18;13.70;74.10
12811;DHT22;6470;47.654;7.896;2023-04-06T14:46:10;14.80;78.70
12811;DHT22;6470;47.654;7.896;2023-04-06T14:48:36;16.00;76.40
12811;DHT22;6470;47.654;7.896;2023-04-06T14:51:02;15.30;76.40
12811;DHT22;6470;47.654;7.896;2023-04-06T14:53:28;15.70;78.40
12811;DHT22;6470;47.654;7.896;2023-04-06T14:55:54;11.10;73.30
12811;DHT22;6470;47.654;7.896;2023-04-06T14:58:21;15.00;76.40
12811;DHT22;6470;47.654;7.896;2023-04-06T15:00:48;15.30;79.80
12811;DHT22;6470;47.654;7.896;2023-04-06T15:03:14;14.40;81.00
12811;DHT22;6470;47.654;7.896;2023-04-06T15:05:39;15.00;81.80
12811;DHT22;6470;47.654;7.896;2023-04-06T15:08:05;15.00;82.60
12811;DHT22;6470;47.654;7.896;2023-04-06T15:10:35;15.30;81.70
12811;DHT22;6470;47.654;7.896;2023-04-06T15:13:02;15.10;81.00
12811;DHT22;6470;47.654;7.896;2023-04-06T15:15:28;15.60;82.70
12811;DHT22;6470;47.654;7.896;2023-04-06T15:17:54;15.90;84.30
12811;DHT22;6470;47.654;7.896;2023-04-06T15:20:20;16.00;84.60
12811;DHT22;6470;47.654;7.896;2023-04-06T15:25:11;10.90;80.10
12811;DHT22;6470;47.654;7.896;2023-04-06T15:27:37;15.20;84.40
12811;DHT22;6470;47.654;7.896;2023-04-06T15:30:03;13.40;83.50
12811;DHT22;6470;47.654;7.896;2023-04-06T15:34:59;15.40;85.70
12811;DHT22;6470;47.654;7.896;2023-04-06T15:37:25;10.50;82.70
12811;DHT22;6470;47.654;7.896;2023-04-06T15:39:52;13.50;84.60
12811;DHT22;6470;47.654;7.896;2023-04-06T15:42:18;15.70;86.10
12811;DHT22;6470;47.654;7.896;2023-04-06T15:44:43;10.50;81.80
12811;DHT22;6470;47.654;7.896;2023-04-06T15:49:35;15.20;89.10
12811;DHT22;6470;47.654;7.896;2023-04-06T15:52:01;15.30;87.30
12811;DHT22;6470;47.654;7.896;2023-04-06T15:56:52;15.20;88.40
12811;DHT22;6470;47.654;7.896;2023-04-06T15:59:18;15.20;87.00
12811;DHT22;6470;47.654;7.896;2023-04-06T16:01:45;14.60;88.40
12811;DHT22;6470;47.654;7.896;2023-04-06T16:04:11;14.90;87.00
12811;DHT22;6470;47.654;7.896;2023-04-06T16:06:37;14.80;88.60
12811;DHT22;6470;47.654;7.896;2023-04-06T16:09:03;15.90;89.10
12811;DHT22;6470;47.654;7.896;2023-04-06T16:11:29;13.30;87.20
12811;DHT22;6470;47.654;7.896;2023-04-06T16:13:54;15.70;88.10
12811;DHT22;6470;47.654;7.896;2023-04-06T16:16:20;13.20;86.50
12811;DHT22;6470;47.654;7.896;2023-04-06T16:18:46;15.30;90.10
12811;DHT22;6470;47.654;7.896;2023-04-06T16:21:15;15.30;89.20
12811;DHT22;6470;47.654;7.896;2023-04-06T16:23:45;10.30;83.30
12811;DHT22;6470;47.654;7.896;2023-04-06T16:26:16;15.50;86.20
12811;DHT22;6470;47.654;7.896;2023-04-06T16:28:44;15.10;85.50
12811;DHT22;6470;47.654;7.896;2023-04-06T16:31:17;15.30;86.50
12811;DHT22;6470;47.654;7.896;2023-04-06T16:33:44;15.50;86.70
12811;DHT22;6470;47.654;7.896;2023-04-06T16:36:10;14.90;85.90
12811;DHT22;6470;47.654;7.896;2023-04-06T16:38:35;15.40;86.60
12811;DHT22;6470;47.654;7.896;2023-04-06T16:41:01;15.00;86.30
12811;DHT22;6470;47.654;7.896;2023-04-06T16:43:27;15.30;87.80
12811;DHT22;6470;47.654;7.896;2023-04-06T16:45:53;9.90;85.70
12811;DHT22;6470;47.654;7.896;2023-04-06T16:48:19;15.40;90.20
12811;DHT22;6470;47.654;7.896;2023-04-06T16:50:45;15.40;90.10
12811;DHT22;6470;47.654;7.896;2023-04-06T16:53:11;15.30;91.00
12811;DHT22;6470;47.654;7.896;2023-04-06T16:55:40;15.10;90.40
12811;DHT22;6470;47.654;7.896;2023-04-06T16:58:07;15.20;90.40
12811;DHT22;6470;47.654;7.896;2023-04-06T17:00:36;14.50;90.60
12811;DHT22;6470;47.654;7.896;2023-04-06T17:03:02;11.80;90.20
12811;DHT22;6470;47.654;7.896;2023-04-06T17:05:27;12.00;90.10
12811;DHT22;6470;47.654;7.896;2023-04-06T17:07:53;15.40;91.60
12811;DHT22;6470;47.654;7.896;2023-04-06T17:10:19;11.90;90.80
12811;DHT22;6470;47.654;7.896;2023-04-06T17:12:45;15.00;91.60